createdAt,value
2017-08-09T00:00:31.245Z,20.70
2017-08-09T00:02:59.513Z,20.70
2017-08-09T00:05:27.030Z,20.70
2017-08-09T00:07:54.522Z,20.70
2017-08-09T00:10:22.044Z,20.70
2017-08-09T00:12:49.529Z,20.70
2017-08-09T00:15:17.015Z,20.70
2017-08-09T00:17:45.295Z,20.70
2017-08-09T00:20:13.554Z,20.70
2017-08-09T00:22:41.066Z,20.70
2017-08-09T00:25:08.562Z,20.70
2017-08-09T00:27:36.074Z,20.70
2017-08-09T00:30:03.561Z,20.60
2017-08-09T00:32:31.075Z,20.60
2017-08-09T00:34:58.561Z,20.60
2017-08-09T00:37:26.070Z,20.60
2017-08-09T00:39:53.568Z,20.60
2017-08-09T00:42:21.091Z,20.60
2017-08-09T00:44:49.353Z,20.60
2017-08-09T00:47:16.846Z,20.60
2017-08-09T00:49:44.361Z,20.60
2017-08-09T00:52:11.851Z,20.60
2017-08-09T00:54:40.130Z,20.60
2017-08-09T00:57:08.386Z,20.60
2017-08-09T00:59:35.895Z,20.60
2017-08-09T01:02:03.393Z,20.60
2017-08-09T01:04:30.901Z,20.60
2017-08-09T01:06:58.399Z,20.60
2017-08-09T01:09:25.922Z,20.60
2017-08-09T01:11:53.423Z,20.60
2017-08-09T01:14:20.942Z,20.60
2017-08-09T01:16:48.439Z,20.60
2017-08-09T01:19:15.926Z,20.60
2017-08-09T01:21:44.206Z,20.60
2017-08-09T01:26:46.407Z,20.50
2017-08-09T01:29:13.902Z,20.50
2017-08-09T01:31:41.418Z,20.50
2017-08-09T01:34:09.673Z,20.50
2017-08-09T01:36:37.182Z,20.50
2017-08-09T01:39:04.678Z,20.50
2017-08-09T01:41:32.195Z,20.50
2017-08-09T01:43:59.698Z,20.50
2017-08-09T01:46:27.214Z,20.50
2017-08-09T01:48:54.702Z,20.50
2017-08-09T01:51:22.213Z,20.50
2017-08-09T01:53:49.738Z,20.50
2017-08-09T01:56:17.273Z,20.50
2017-08-09T01:58:44.772Z,20.50
2017-08-09T02:01:12.268Z,20.50
2017-08-09T02:03:39.783Z,20.50
2017-08-09T02:06:07.311Z,20.50
2017-08-09T02:08:34.819Z,20.50
2017-08-09T02:11:03.081Z,20.50
2017-08-09T02:13:30.589Z,20.50
2017-08-09T02:15:58.082Z,20.50
2017-08-09T02:18:25.605Z,20.50
2017-08-09T02:20:53.094Z,20.50
2017-08-09T02:23:20.597Z,20.50
2017-08-09T02:25:48.090Z,20.50
2017-08-09T02:28:15.598Z,20.50
2017-08-09T02:30:43.853Z,20.50
2017-08-09T02:33:11.375Z,20.40
2017-08-09T02:35:38.866Z,20.50
2017-08-09T02:38:06.362Z,20.40
2017-08-09T02:40:34.639Z,20.40
2017-08-09T02:43:02.133Z,20.40
2017-08-09T02:45:29.654Z,20.40
2017-08-09T02:47:57.915Z,20.40
2017-08-09T02:50:25.429Z,20.40
2017-08-09T02:52:52.923Z,20.40
2017-08-09T02:55:20.444Z,20.40
2017-08-09T02:57:47.938Z,20.40
2017-08-09T03:00:15.447Z,20.40
2017-08-09T03:02:42.945Z,20.40
2017-08-09T03:05:10.462Z,20.40
2017-08-09T03:07:37.953Z,20.40
2017-08-09T03:10:05.454Z,20.40
2017-08-09T03:12:33.724Z,20.40
2017-08-09T03:15:01.987Z,20.40
2017-08-09T03:17:29.498Z,20.30
2017-08-09T03:19:56.994Z,20.40
2017-08-09T03:22:24.501Z,20.30
2017-08-09T03:24:51.995Z,20.30
2017-08-09T03:27:19.524Z,20.30
2017-08-09T03:29:47.014Z,20.30
2017-08-09T03:32:14.525Z,20.20
2017-08-09T03:34:42.787Z,20.20
2017-08-09T03:37:11.074Z,20.20
2017-08-09T03:39:39.334Z,20.20
2017-08-09T03:42:06.826Z,20.20
2017-08-09T03:44:34.342Z,20.20
2017-08-09T03:47:01.838Z,20.20
2017-08-09T03:49:29.358Z,20.20
2017-08-09T03:51:56.851Z,20.20
2017-08-09T03:54:24.369Z,20.20
2017-08-09T03:56:51.854Z,20.20
2017-08-09T03:59:20.138Z,20.20
2017-08-09T04:01:48.409Z,20.20
2017-08-09T04:04:16.710Z,20.20
2017-08-09T04:06:44.199Z,20.10
2017-08-09T04:09:11.726Z,20.20
2017-08-09T04:11:39.218Z,20.10
2017-08-09T04:14:07.151Z,20.10
2017-08-09T04:16:34.662Z,20.10
2017-08-09T04:19:02.158Z,20.10
2017-08-09T04:21:30.598Z,20.00
2017-08-09T04:23:58.089Z,20.00
2017-08-09T04:26:26.366Z,20.00
2017-08-09T04:28:53.858Z,20.00
2017-08-09T04:31:21.370Z,20.00
2017-08-09T04:33:48.867Z,20.00
2017-08-09T04:36:16.377Z,19.90
2017-08-09T04:38:43.869Z,20.00
2017-08-09T04:41:12.146Z,20.00
2017-08-09T04:43:40.397Z,20.00
2017-08-09T04:46:07.888Z,19.90
2017-08-09T04:48:35.402Z,20.00
2017-08-09T04:51:02.898Z,20.00
2017-08-09T04:53:31.174Z,20.00
2017-08-09T04:55:59.434Z,20.00
2017-08-09T04:58:26.947Z,20.00
2017-08-09T05:00:54.434Z,20.00
2017-08-09T05:03:21.947Z,20.00
2017-08-09T05:05:49.449Z,20.10
2017-08-09T05:08:16.963Z,20.10
2017-08-09T05:10:44.453Z,20.10
2017-08-09T05:13:11.973Z,20.10
2017-08-09T05:15:39.470Z,20.10
2017-08-09T05:18:06.961Z,20.10
2017-08-09T05:20:34.475Z,20.10
2017-08-09T05:23:01.963Z,20.20
2017-08-09T05:25:29.465Z,20.20
2017-08-09T05:27:56.958Z,20.20
2017-08-09T05:30:24.466Z,20.20
2017-08-09T05:32:52.717Z,20.20
2017-08-09T05:35:20.231Z,20.20
2017-08-09T05:37:47.731Z,20.20
2017-08-09T05:40:15.247Z,20.20
2017-08-09T05:42:42.747Z,20.20
2017-08-09T05:45:10.250Z,20.20
2017-08-09T05:47:37.762Z,20.30
2017-08-09T05:50:05.258Z,20.30
2017-08-09T05:52:33.535Z,20.40
2017-08-09T05:55:01.794Z,20.30
2017-08-09T05:57:29.310Z,20.40
2017-08-09T05:59:56.815Z,20.40
2017-08-09T06:02:24.321Z,20.40
2017-08-09T06:04:51.810Z,20.50
2017-08-09T06:07:19.322Z,20.50
2017-08-09T06:09:46.819Z,20.50
2017-08-09T06:12:14.305Z,20.60
2017-08-09T06:14:41.813Z,20.60
2017-08-09T06:17:09.310Z,20.70
2017-08-09T06:19:36.823Z,20.70
2017-08-09T06:22:04.315Z,20.80
2017-08-09T06:24:31.822Z,20.80
2017-08-09T06:26:59.323Z,20.90
2017-08-09T06:29:26.834Z,20.90
2017-08-09T06:31:55.085Z,21.00
2017-08-09T06:34:22.594Z,21.00
2017-08-09T06:36:50.090Z,21.00
2017-08-09T06:39:17.582Z,21.10
2017-08-09T06:41:45.862Z,21.20
2017-08-09T06:44:14.120Z,21.30
2017-08-09T06:46:41.631Z,21.30
2017-08-09T06:49:09.136Z,21.40
2017-08-09T06:51:36.663Z,21.40
2017-08-09T06:54:04.163Z,21.50
2017-08-09T06:56:32.438Z,21.70
2017-08-09T06:58:59.930Z,21.70
2017-08-09T07:01:27.458Z,21.90
2017-08-09T07:03:55.724Z,22.10
2017-08-09T07:06:23.241Z,22.00
2017-08-09T07:08:50.734Z,22.20
2017-08-09T07:11:18.229Z,22.20
2017-08-09T07:13:45.745Z,22.30
2017-08-09T07:16:13.238Z,22.40
2017-08-09T07:18:40.762Z,22.40
2017-08-09T07:21:08.259Z,22.50
2017-08-09T07:23:35.774Z,22.60
2017-08-09T07:26:03.262Z,22.70
2017-08-09T07:28:31.542Z,22.90
2017-08-09T07:30:59.807Z,23.00
2017-08-09T07:33:27.318Z,22.90
2017-08-09T07:35:54.814Z,23.00
2017-08-09T07:38:22.330Z,23.10
2017-08-09T07:40:49.826Z,23.20
2017-08-09T07:43:17.316Z,23.30
2017-08-09T07:45:45.590Z,23.40
2017-08-09T07:48:13.842Z,23.40
2017-08-09T07:50:41.354Z,23.40
2017-08-09T07:53:08.842Z,23.40
2017-08-09T07:55:36.356Z,23.50
2017-08-09T07:58:04.615Z,23.60
2017-08-09T08:00:32.899Z,23.60
2017-08-09T08:03:01.167Z,23.60
2017-08-09T08:05:29.450Z,23.60
2017-08-09T08:07:57.711Z,23.60
2017-08-09T08:10:25.303Z,23.60
2017-08-09T08:12:52.861Z,23.70
2017-08-09T08:15:20.374Z,23.70
2017-08-09T08:17:47.883Z,23.80
2017-08-09T08:20:15.373Z,23.80
2017-08-09T08:22:42.896Z,23.90
2017-08-09T08:25:10.392Z,23.90
2017-08-09T08:27:37.906Z,23.90
2017-08-09T08:30:06.158Z,23.90
2017-08-09T08:32:33.672Z,23.90
2017-08-09T08:35:01.157Z,23.90
2017-08-09T08:37:28.670Z,24.00
2017-08-09T08:39:56.158Z,24.00
2017-08-09T08:42:23.652Z,24.00
2017-08-09T08:44:51.170Z,24.10
2017-08-09T08:47:18.670Z,24.10
2017-08-09T08:49:46.185Z,24.20
2017-08-09T08:52:13.679Z,24.20
2017-08-09T08:54:41.186Z,24.20
2017-08-09T08:57:08.679Z,24.30
2017-08-09T08:59:36.190Z,24.30
2017-08-09T09:02:04.442Z,24.40
2017-08-09T09:04:31.965Z,24.40
2017-08-09T09:06:59.454Z,24.50
2017-08-09T09:09:26.943Z,24.50
2017-08-09T09:11:54.471Z,24.50
2017-08-09T09:14:22.002Z,24.60
2017-08-09T09:16:49.522Z,24.60
2017-08-09T09:19:17.798Z,24.60
2017-08-09T09:21:46.077Z,24.60
2017-08-09T09:24:13.570Z,24.60
2017-08-09T09:26:41.082Z,24.70
2017-08-09T09:29:08.582Z,24.70
2017-08-09T09:31:36.090Z,24.70
2017-08-09T09:34:03.574Z,24.80
2017-08-09T09:36:31.094Z,24.80
2017-08-09T09:38:58.598Z,24.90
2017-08-09T09:41:26.094Z,24.90
2017-08-09T09:43:53.607Z,25.00
2017-08-09T09:46:21.110Z,25.00
2017-08-09T09:48:48.617Z,25.00
2017-08-09T09:51:16.877Z,25.10
2017-08-09T09:53:44.403Z,25.10
2017-08-09T09:56:11.898Z,25.20
2017-08-09T09:58:40.186Z,25.20
2017-08-09T10:01:07.679Z,25.20
2017-08-09T10:03:35.198Z,25.20
2017-08-09T10:06:03.453Z,25.20
2017-08-09T10:08:30.967Z,25.20
2017-08-09T10:10:58.477Z,25.20
2017-08-09T10:13:25.989Z,25.20
2017-08-09T10:15:53.482Z,25.30
2017-08-09T10:18:21.020Z,25.30
2017-08-09T10:20:48.510Z,25.30
2017-08-09T10:23:15.998Z,25.30
2017-08-09T10:25:43.535Z,25.40
2017-08-09T10:28:11.026Z,25.40
2017-08-09T10:30:38.538Z,25.40
2017-08-09T10:33:06.030Z,25.40
2017-08-09T10:35:34.316Z,25.40
2017-08-09T10:38:01.856Z,25.40
2017-08-09T10:40:29.367Z,25.50
2017-08-09T10:42:56.862Z,25.50
2017-08-09T10:45:24.381Z,25.50
2017-08-09T10:47:51.871Z,25.50
2017-08-09T10:50:19.383Z,25.60
2017-08-09T10:52:46.882Z,25.60
2017-08-09T10:55:14.398Z,25.70
2017-08-09T10:57:41.886Z,25.70
2017-08-09T11:00:09.378Z,25.70
2017-08-09T11:02:36.890Z,25.80
2017-08-09T11:05:04.393Z,25.90
2017-08-09T11:07:31.899Z,25.90
2017-08-09T11:09:59.390Z,25.90
2017-08-09T11:12:26.897Z,25.90
2017-08-09T11:14:55.154Z,25.90
2017-08-09T11:17:22.666Z,25.90
2017-08-09T11:19:50.214Z,25.90
2017-08-09T11:22:17.735Z,26.00
2017-08-09T11:24:46.020Z,26.00
2017-08-09T11:27:13.542Z,26.00
2017-08-09T11:29:41.039Z,26.00
2017-08-09T11:32:09.346Z,26.00
2017-08-09T11:34:36.843Z,26.00
2017-08-09T11:37:04.335Z,26.00
2017-08-09T11:39:32.614Z,26.00
2017-08-09T11:42:00.866Z,25.90
2017-08-09T11:44:28.373Z,25.90
2017-08-09T11:46:55.871Z,25.90
2017-08-09T11:49:23.383Z,25.90
2017-08-09T11:51:50.870Z,25.90
2017-08-09T11:54:18.375Z,25.90
2017-08-09T11:56:45.870Z,25.90
2017-08-09T11:59:13.378Z,25.90
2017-08-09T12:01:40.866Z,25.90
2017-08-09T12:04:08.373Z,26.00
2017-08-09T12:06:35.869Z,26.00
2017-08-09T12:09:04.161Z,26.10
2017-08-09T12:11:31.664Z,26.10
2017-08-09T12:13:59.158Z,26.10
2017-08-09T12:16:27.438Z,26.20
2017-08-09T12:18:54.956Z,26.20
2017-08-09T12:21:22.478Z,26.20
2017-08-09T12:23:49.978Z,26.20
2017-08-09T12:26:17.515Z,26.20
2017-08-09T12:28:45.015Z,26.20
2017-08-09T12:31:12.535Z,26.30
2017-08-09T12:33:40.035Z,26.30
2017-08-09T12:36:07.548Z,26.30
2017-08-09T12:38:35.038Z,26.40
2017-08-09T12:41:02.573Z,26.40
2017-08-09T12:43:30.070Z,26.40
2017-08-09T12:45:57.566Z,26.40
2017-08-09T12:48:25.078Z,26.40
2017-08-09T12:50:52.571Z,26.40
2017-08-09T12:53:20.085Z,26.40
2017-08-09T12:55:47.573Z,26.40
2017-08-09T12:58:15.087Z,26.40
2017-08-09T13:00:42.605Z,26.50
2017-08-09T13:03:10.119Z,26.50
2017-08-09T13:05:37.606Z,26.50
2017-08-09T13:08:05.118Z,26.50
2017-08-09T13:10:32.615Z,26.50
2017-08-09T13:13:00.159Z,26.50
2017-08-09T13:15:27.638Z,26.50
2017-08-09T13:17:55.131Z,26.50
2017-08-09T13:20:22.650Z,26.50
2017-08-09T13:22:50.146Z,26.50
2017-08-09T13:25:17.667Z,26.50
2017-08-09T13:27:45.169Z,26.50
2017-08-09T13:30:12.685Z,26.50
2017-08-09T13:32:40.182Z,26.50
2017-08-09T13:35:07.698Z,26.50
2017-08-09T13:37:35.205Z,26.50
2017-08-09T13:40:02.714Z,26.50
2017-08-09T13:42:30.210Z,26.50
2017-08-09T13:44:57.726Z,26.50
2017-08-09T13:47:25.218Z,26.50
2017-08-09T13:49:53.504Z,26.50
2017-08-09T13:52:21.786Z,26.60
2017-08-09T13:54:49.286Z,26.50
2017-08-09T13:57:16.796Z,26.50
2017-08-09T13:59:44.290Z,26.60
2017-08-09T14:02:11.797Z,26.60
2017-08-09T14:04:40.050Z,26.60
2017-08-09T14:07:07.567Z,26.60
2017-08-09T14:09:35.057Z,26.60
2017-08-09T14:12:02.598Z,26.60
2017-08-09T14:14:30.160Z,26.60
2017-08-09T14:16:57.655Z,26.60
2017-08-09T14:19:25.161Z,26.60
2017-08-09T14:21:53.502Z,26.60
2017-08-09T14:24:21.017Z,26.60
2017-08-09T14:26:48.525Z,26.60
2017-08-09T14:29:16.810Z,26.60
2017-08-09T14:31:45.069Z,26.60
2017-08-09T14:34:12.577Z,26.60
2017-08-09T14:36:40.069Z,26.60
2017-08-09T14:39:07.582Z,26.70
2017-08-09T14:41:35.147Z,26.70
2017-08-09T14:44:02.763Z,26.70
2017-08-09T14:46:31.045Z,26.70
2017-08-09T14:48:58.542Z,26.70
2017-08-09T14:51:26.067Z,26.70
2017-08-09T14:53:53.559Z,26.70
2017-08-09T14:56:21.390Z,26.70
2017-08-09T14:58:48.895Z,26.70
2017-08-09T15:01:16.411Z,26.70
2017-08-09T15:03:43.919Z,26.70
2017-08-09T15:06:11.435Z,26.70
2017-08-09T15:08:39.706Z,26.70
2017-08-09T15:13:41.978Z,26.70
2017-08-09T15:16:09.498Z,26.60
2017-08-09T15:18:37.001Z,26.60
2017-08-09T15:21:04.490Z,26.60
2017-08-09T15:23:32.014Z,26.60
2017-08-09T15:25:59.503Z,26.60
2017-08-09T15:28:27.018Z,26.60
2017-08-09T15:30:54.515Z,26.50
2017-08-09T15:33:22.030Z,26.50
2017-08-09T15:35:49.521Z,26.50
2017-08-09T15:38:17.034Z,26.50
2017-08-09T15:40:44.530Z,26.50
2017-08-09T15:43:12.043Z,26.50
2017-08-09T15:45:39.541Z,26.50
2017-08-09T15:48:07.030Z,26.40
2017-08-09T15:50:35.310Z,26.40
2017-08-09T15:53:02.810Z,26.40
2017-08-09T15:55:30.327Z,26.40
2017-08-09T15:57:58.594Z,26.40
2017-08-09T16:00:26.879Z,26.40
2017-08-09T16:02:55.133Z,26.30
2017-08-09T16:05:22.654Z,26.30
2017-08-09T16:07:50.157Z,26.30
2017-08-09T16:10:17.671Z,26.30
2017-08-09T16:12:45.157Z,26.20
2017-08-09T16:15:12.684Z,26.20
2017-08-09T16:17:40.183Z,26.20
2017-08-09T16:20:07.682Z,26.10
2017-08-09T16:22:35.195Z,26.10
2017-08-09T16:25:02.694Z,26.10
2017-08-09T16:27:30.202Z,26.00
2017-08-09T16:29:57.690Z,26.00
2017-08-09T16:32:25.961Z,26.00
2017-08-09T16:34:53.458Z,26.00
2017-08-09T16:37:20.965Z,26.00
2017-08-09T16:39:48.463Z,25.90
2017-08-09T16:42:15.978Z,25.90
2017-08-09T16:44:43.466Z,25.90
2017-08-09T16:47:10.973Z,25.90
2017-08-09T16:49:38.465Z,25.90
2017-08-09T16:52:05.985Z,25.90
2017-08-09T16:54:33.478Z,25.90
2017-08-09T16:57:00.970Z,25.90
2017-08-09T16:59:28.494Z,25.90
2017-08-09T17:01:55.992Z,25.90
2017-08-09T17:04:23.509Z,25.80
2017-08-09T17:06:51.007Z,25.80
2017-08-09T17:09:18.523Z,25.70
2017-08-09T17:11:46.018Z,25.70
2017-08-09T17:14:14.298Z,25.50
2017-08-09T17:16:42.558Z,25.40
2017-08-09T17:19:10.838Z,25.40
2017-08-09T17:21:39.097Z,25.40
2017-08-09T17:24:06.619Z,25.40
2017-08-09T17:26:34.112Z,25.40
2017-08-09T17:29:01.607Z,25.40
2017-08-09T17:31:29.123Z,25.30
2017-08-09T17:33:56.630Z,25.30
2017-08-09T17:36:24.146Z,25.30
2017-08-09T17:38:51.645Z,25.30
2017-08-09T17:41:19.154Z,25.30
2017-08-09T17:43:46.646Z,25.20
2017-08-09T17:46:14.929Z,25.10
2017-08-09T17:48:43.189Z,25.00
2017-08-09T17:51:10.706Z,25.00
2017-08-09T17:53:38.206Z,25.00
2017-08-09T17:56:05.717Z,24.90
2017-08-09T17:58:33.209Z,24.80
2017-08-09T18:01:00.694Z,24.80
2017-08-09T18:03:28.978Z,24.70
2017-08-09T18:05:57.239Z,24.70
2017-08-09T18:08:25.514Z,24.70
2017-08-09T18:10:53.000Z,24.70
2017-08-09T18:13:20.531Z,24.70
2017-08-09T18:15:48.018Z,24.70
2017-08-09T18:18:15.537Z,24.70
2017-08-09T18:20:43.042Z,24.70
2017-08-09T18:23:10.539Z,24.70
2017-08-09T18:25:38.054Z,24.70
2017-08-09T18:28:05.555Z,24.60
2017-08-09T18:30:33.062Z,24.60
2017-08-09T18:33:01.326Z,24.60
2017-08-09T18:35:29.615Z,24.60
2017-08-09T18:37:57.106Z,24.50
2017-08-09T18:40:24.610Z,24.50
2017-08-09T18:42:52.099Z,24.50
2017-08-09T18:45:19.605Z,24.50
2017-08-09T18:47:47.098Z,24.50
2017-08-09T18:50:15.376Z,24.50
2017-08-09T18:52:43.645Z,24.50
2017-08-09T18:55:11.930Z,24.50
2017-08-09T18:57:40.182Z,24.50
2017-08-09T19:00:07.674Z,24.50
2017-08-09T19:02:35.950Z,24.50
2017-08-09T19:05:04.206Z,24.40
2017-08-09T19:07:31.725Z,24.40
2017-08-09T19:09:59.223Z,24.40
2017-08-09T19:12:26.734Z,24.40
2017-08-09T19:14:54.230Z,24.30
2017-08-09T19:17:21.742Z,24.30
2017-08-09T19:19:49.241Z,24.30
2017-08-09T19:22:16.754Z,24.20
2017-08-09T19:24:44.250Z,24.20
2017-08-09T19:27:11.779Z,24.20
2017-08-09T19:29:39.275Z,24.20
2017-08-09T19:32:06.771Z,24.20
2017-08-09T19:34:34.281Z,24.20
2017-08-09T19:37:01.775Z,24.20
2017-08-09T19:39:30.062Z,24.10
2017-08-09T19:41:58.318Z,24.10
2017-08-09T19:44:26.606Z,24.10
2017-08-09T19:46:54.875Z,24.10
2017-08-09T19:49:22.386Z,24.10
2017-08-09T19:51:49.882Z,24.10
2017-08-09T19:54:17.410Z,24.10
2017-08-09T19:56:44.902Z,24.10
2017-08-09T19:59:12.402Z,24.00
2017-08-09T20:01:39.923Z,24.00
2017-08-09T20:04:07.422Z,24.00
2017-08-09T20:06:34.934Z,24.00
2017-08-09T20:09:02.439Z,24.00
2017-08-09T20:11:29.946Z,24.00
2017-08-09T20:13:57.438Z,24.00
2017-08-09T20:16:25.710Z,23.90
2017-08-09T20:18:53.971Z,23.90
2017-08-09T20:21:21.486Z,23.90
2017-08-09T20:23:48.982Z,23.90
2017-08-09T20:26:16.486Z,23.80
2017-08-09T20:28:43.974Z,23.80
2017-08-09T20:31:11.489Z,23.80
2017-08-09T20:33:39.751Z,23.80
2017-08-09T20:36:07.237Z,23.80
2017-08-09T20:38:34.751Z,23.70
2017-08-09T20:41:02.243Z,23.70
2017-08-09T20:43:30.521Z,23.70
2017-08-09T20:45:58.783Z,23.70
2017-08-09T20:48:27.061Z,23.60
2017-08-09T20:50:54.549Z,23.60
2017-08-09T20:53:22.066Z,23.60
2017-08-09T20:55:49.563Z,23.60
2017-08-09T20:58:17.073Z,23.60
2017-08-09T21:00:44.570Z,23.60
2017-08-09T21:03:12.092Z,23.60
2017-08-09T21:05:39.594Z,23.50
2017-08-09T21:08:07.085Z,23.50
2017-08-09T21:10:34.593Z,23.50
2017-08-09T21:13:02.849Z,23.40
2017-08-09T21:15:30.375Z,23.40
2017-08-09T21:17:57.866Z,23.40
2017-08-09T21:20:25.369Z,23.40
2017-08-09T21:22:52.857Z,23.40
2017-08-09T21:25:20.374Z,23.40
2017-08-09T21:27:47.931Z,23.30
2017-08-09T21:30:16.226Z,23.30
2017-08-09T21:32:43.729Z,23.30
2017-08-09T21:35:11.222Z,23.30
2017-08-09T21:37:39.498Z,23.20
2017-08-09T21:40:07.758Z,23.20
2017-08-09T21:42:35.270Z,23.20
2017-08-09T21:45:02.757Z,23.20
2017-08-09T21:47:30.270Z,23.20
2017-08-09T21:49:57.770Z,23.20
2017-08-09T21:52:25.278Z,23.10
2017-08-09T21:54:53.535Z,23.10
2017-08-09T21:57:21.058Z,23.10
2017-08-09T21:59:48.546Z,23.10
2017-08-09T22:02:16.039Z,23.10
2017-08-09T22:04:43.555Z,23.10
2017-08-09T22:07:11.051Z,23.10
2017-08-09T22:09:38.561Z,23.00
2017-08-09T22:12:06.055Z,23.00
2017-08-09T22:14:33.561Z,23.00
2017-08-09T22:17:01.063Z,23.00
2017-08-09T22:19:29.338Z,23.00
2017-08-09T22:21:56.830Z,23.00
2017-08-09T22:24:24.350Z,22.90
2017-08-09T22:26:51.851Z,22.90
2017-08-09T22:29:19.355Z,22.90
2017-08-09T22:31:46.866Z,22.90
2017-08-09T22:34:14.354Z,22.90
2017-08-09T22:36:41.863Z,22.90
2017-08-09T22:39:09.353Z,22.90
2017-08-09T22:41:36.857Z,22.90
2017-08-09T22:44:04.355Z,22.90
2017-08-09T22:46:31.870Z,22.80
2017-08-09T22:48:59.366Z,22.80
2017-08-09T22:51:26.885Z,22.80
2017-08-09T22:53:54.383Z,22.80
2017-08-09T22:56:21.874Z,22.80
2017-08-09T22:58:49.399Z,22.80
2017-08-09T23:01:16.894Z,22.70
2017-08-09T23:03:44.403Z,22.70
2017-08-09T23:06:12.666Z,22.60
2017-08-09T23:08:40.173Z,22.60
2017-08-09T23:11:07.670Z,22.60
2017-08-09T23:13:35.214Z,22.60
2017-08-09T23:16:02.708Z,22.60
2017-08-09T23:18:30.240Z,22.50
2017-08-09T23:20:57.746Z,22.50
2017-08-09T23:23:26.011Z,22.40
2017-08-09T23:25:54.293Z,22.40
2017-08-09T23:28:21.782Z,22.40
2017-08-09T23:30:49.303Z,22.40
2017-08-09T23:33:16.799Z,22.40
2017-08-09T23:35:44.310Z,22.30
2017-08-09T23:38:11.798Z,22.30
2017-08-09T23:40:39.305Z,22.30
2017-08-09T23:43:06.793Z,22.30
2017-08-09T23:45:34.305Z,22.20
2017-08-09T23:48:01.793Z,22.30
2017-08-09T23:50:29.305Z,22.20
2017-08-09T23:52:56.793Z,22.20
2017-08-09T23:55:24.309Z,22.10
2017-08-09T23:57:51.798Z,22.10
